Time;durP1;ratioP1;P1;durP2;ratioP2;P2;SDS_P1;SDS_P2;PMS_P1;PMS_P2;Temp;Humidity;BMP_temperature;BMP_pressure;BME280_temperature;BME280_humidity;BME280_pressure;Samples;Min_cycle;Max_cycle;Signal;HPM_P1;HPM_P2
2024/02/21 00:00:08;;;;;;;12.45;3.45;;;;;;;;;;5011729;28;20053;-90
2024/02/21 00:02:35;;;;;;;13.15;3.95;;;;;;;;;;5007927;28;20097;-90
2024/02/21 00:05:02;;;;;;;13.52;3.70;;;;;;;;;;5007431;28;20058;-90
2024/02/21 00:07:30;;;;;;;13.48;3.33;;;;;;;;;;5001100;28;20062;-90
2024/02/21 00:09:57;;;;;;;14.32;3.85;;;;;;;;;;5001961;28;20061;-90
2024/02/21 00:12:25;;;;;;;16.25;3.72;;;;;;;;;;5008962;28;20074;-90
2024/02/21 00:14:52;;;;;;;13.38;3.92;;;;;;;;;;5006459;28;20082;-91
2024/02/21 00:17:19;;;;;;;14.20;3.90;;;;;;;;;;5004572;28;20054;-93
2024/02/21 00:19:46;;;;;;;10.95;3.85;;;;;;;;;;5012941;28;20124;-92
2024/02/21 00:22:13;;;;;;;18.42;4.38;;;;;;;;;;5012932;28;20056;-92
2024/02/21 00:24:41;;;;;;;10.63;4.00;;;;;;;;;;5009557;28;20282;-90
2024/02/21 00:27:08;;;;;;;10.90;4.00;;;;;;;;;;4999642;28;20097;-88
2024/02/21 00:29:36;;;;;;;15.23;4.22;;;;;;;;;;5001494;28;20047;-90
2024/02/21 00:32:03;;;;;;;19.20;4.78;;;;;;;;;;5010565;28;20054;-90
2024/02/21 00:34:30;;;;;;;14.98;4.50;;;;;;;;;;5012025;28;20129;-88
2024/02/21 00:36:57;;;;;;;15.57;4.50;;;;;;;;;;5012162;28;20057;-90
2024/02/21 00:39:25;;;;;;;15.40;4.18;;;;;;;;;;5005211;28;20057;-90
2024/02/21 00:41:52;;;;;;;12.13;4.43;;;;;;;;;;5005108;28;20084;-91
2024/02/21 00:44:20;;;;;;;18.38;4.30;;;;;;;;;;5009074;28;20092;-90
2024/02/21 00:46:47;;;;;;;18.05;4.65;;;;;;;;;;5001120;28;20137;-90
2024/02/21 00:49:15;;;;;;;12.45;4.80;;;;;;;;;;5000989;28;20062;-91
2024/02/21 00:51:42;;;;;;;15.02;4.47;;;;;;;;;;5010236;28;20038;-88
2024/02/21 00:54:09;;;;;;;14.00;4.35;;;;;;;;;;5012538;28;20047;-91
2024/02/21 00:56:36;;;;;;;11.70;4.55;;;;;;;;;;5007173;28;20046;-91
2024/02/21 00:59:03;;;;;;;14.63;4.35;;;;;;;;;;5004155;28;20058;-90
2024/02/21 01:01:31;;;;;;;13.32;4.22;;;;;;;;;;5012503;28;20104;-90
2024/02/21 01:03:58;;;;;;;13.88;4.35;;;;;;;;;;5004371;28;20054;-90
2024/02/21 01:06:26;;;;;;;13.65;4.72;;;;;;;;;;5008255;28;20066;-91
2024/02/21 01:08:53;;;;;;;11.77;4.38;;;;;;;;;;5008679;28;20066;-90
2024/02/21 01:11:20;;;;;;;11.63;4.28;;;;;;;;;;5000844;28;20050;-91
2024/02/21 01:13:48;;;;;;;18.70;5.18;;;;;;;;;;5000261;28;20131;-91
2024/02/21 01:16:15;;;;;;;11.40;4.03;;;;;;;;;;5009240;28;20125;-92
2024/02/21 01:18:42;;;;;;;21.65;4.97;;;;;;;;;;5000905;28;20567;-90
2024/02/21 01:21:10;;;;;;;17.00;4.43;;;;;;;;;;5000966;28;20046;-90
2024/02/21 01:23:38;;;;;;;11.40;4.00;;;;;;;;;;5000927;28;20112;-91
2024/02/21 01:26:08;;;;;;;14.90;4.57;;;;;;;;;;5000777;28;20065;-91
2024/02/21 01:28:35;;;;;;;15.20;4.40;;;;;;;;;;5003188;28;20104;-91
2024/02/21 01:31:03;;;;;;;11.80;4.30;;;;;;;;;;5009203;28;20422;-90
2024/02/21 01:33:34;;;;;;;13.88;4.05;;;;;;;;;;5002635;28;20062;-91
2024/02/21 01:36:02;;;;;;;13.77;4.22;;;;;;;;;;5010029;28;20046;-90
2024/02/21 01:38:31;;;;;;;15.18;4.45;;;;;;;;;;5007578;28;20424;-91
2024/02/21 01:40:59;;;;;;;9.90;3.88;;;;;;;;;;5002115;28;20051;-91
2024/02/21 01:43:26;;;;;;;10.73;5.05;;;;;;;;;;5011429;28;20497;-91
2024/02/21 01:45:55;;;;;;;12.55;4.60;;;;;;;;;;5004495;28;20072;-91
2024/02/21 01:48:23;;;;;;;11.75;5.05;;;;;;;;;;4999968;28;20441;-91
2024/02/21 01:50:51;;;;;;;13.60;4.68;;;;;;;;;;5008230;28;20491;-91
2024/02/21 01:53:23;;;;;;;16.95;4.60;;;;;;;;;;5004527;28;20058;-94
2024/02/21 01:55:50;;;;;;;11.57;4.88;;;;;;;;;;5008509;28;20105;-90
2024/02/21 01:58:19;;;;;;;12.55;4.03;;;;;;;;;;5012202;28;20100;-90
2024/02/21 02:00:48;;;;;;;14.68;4.90;;;;;;;;;;5007983;28;20051;-91
2024/02/21 02:03:18;;;;;;;16.65;4.70;;;;;;;;;;5004170;28;20109;-91
2024/02/21 02:05:49;;;;;;;14.25;4.55;;;;;;;;;;5012368;28;20049;-90
2024/02/21 02:08:17;;;;;;;13.68;4.85;;;;;;;;;;5029469;28;20045;-88
2024/02/21 02:10:45;;;;;;;11.52;4.60;;;;;;;;;;5019947;28;20042;-90
2024/02/21 02:13:13;;;;;;;12.20;4.65;;;;;;;;;;5003882;28;20066;-92
2024/02/21 02:15:45;;;;;;;13.02;4.28;;;;;;;;;;5003815;28;20050;-90
2024/02/21 02:18:13;;;;;;;11.40;4.72;;;;;;;;;;5003318;28;20124;-90
2024/02/21 02:20:41;;;;;;;12.43;4.65;;;;;;;;;;5003600;28;20049;-91
2024/02/21 02:23:12;;;;;;;9.95;4.50;;;;;;;;;;5011705;28;20474;-91
2024/02/21 02:25:40;;;;;;;13.30;4.38;;;;;;;;;;5010033;28;20041;-89
2024/02/21 02:28:08;;;;;;;14.20;5.00;;;;;;;;;;5008572;28;20062;-91
2024/02/21 02:30:36;;;;;;;11.95;4.30;;;;;;;;;;5010312;28;20069;-90
2024/02/21 02:33:06;;;;;;;15.18;5.57;;;;;;;;;;5004815;28;20400;-90
2024/02/21 02:35:36;;;;;;;12.98;4.65;;;;;;;;;;5008919;28;20050;-91
2024/02/21 02:38:03;;;;;;;13.25;4.40;;;;;;;;;;5003209;28;20113;-90
2024/02/21 02:40:31;;;;;;;14.15;4.97;;;;;;;;;;5003094;28;20046;-89
2024/02/21 02:42:58;;;;;;;15.60;5.13;;;;;;;;;;5003149;28;20120;-91
2024/02/21 02:45:26;;;;;;;15.75;4.78;;;;;;;;;;4996006;28;20077;-90
2024/02/21 02:47:54;;;;;;;14.70;4.63;;;;;;;;;;5010765;28;20152;-91
2024/02/21 02:50:21;;;;;;;16.33;5.38;;;;;;;;;;5011082;28;20403;-91
2024/02/21 02:52:49;;;;;;;15.80;5.25;;;;;;;;;;5009307;28;20050;-92
2024/02/21 02:55:16;;;;;;;17.48;5.15;;;;;;;;;;5011872;28;20053;-91
2024/02/21 02:57:43;;;;;;;12.00;4.78;;;;;;;;;;5005688;28;20081;-92
2024/02/21 03:00:11;;;;;;;12.73;4.63;;;;;;;;;;5004978;28;20057;-90
2024/02/21 03:02:39;;;;;;;13.30;4.63;;;;;;;;;;5008187;28;20050;-92
2024/02/21 03:05:14;;;;;;;11.43;4.00;;;;;;;;;;5002851;28;20081;-92
2024/02/21 03:07:42;;;;;;;15.40;4.85;;;;;;;;;;5005167;28;20046;-89
2024/02/21 03:10:10;;;;;;;14.48;4.63;;;;;;;;;;5002669;28;20062;-91
2024/02/21 03:12:37;;;;;;;19.35;5.07;;;;;;;;;;5002683;28;20054;-91
2024/02/21 03:15:05;;;;;;;11.32;4.32;;;;;;;;;;5002287;28;20423;-92
2024/02/21 03:17:36;;;;;;;16.40;4.70;;;;;;;;;;5002814;28;20054;-91
2024/02/21 03:20:10;;;;;;;16.10;4.85;;;;;;;;;;5004324;28;20100;-91
2024/02/21 03:22:39;;;;;;;13.02;4.70;;;;;;;;;;5026409;28;20038;-91
2024/02/21 03:25:08;;;;;;;11.25;4.47;;;;;;;;;;5002364;28;20051;-91
2024/02/21 03:27:35;;;;;;;10.65;4.32;;;;;;;;;;5007282;28;20495;-91
2024/02/21 03:30:04;;;;;;;14.10;4.43;;;;;;;;;;5013619;28;20467;-92
2024/02/21 03:32:31;;;;;;;12.88;4.40;;;;;;;;;;5008960;28;20438;-92
2024/02/21 03:34:59;;;;;;;15.10;4.85;;;;;;;;;;5002256;28;20050;-92
2024/02/21 03:37:26;;;;;;;12.52;4.50;;;;;;;;;;5001986;28;20054;-92
2024/02/21 03:39:54;;;;;;;16.45;4.90;;;;;;;;;;5001812;28;20077;-92
2024/02/21 03:42:21;;;;;;;15.80;4.25;;;;;;;;;;5001891;28;20451;-90
2024/02/21 03:44:48;;;;;;;11.48;4.57;;;;;;;;;;5009387;28;20054;-92
2024/02/21 03:47:15;;;;;;;14.40;4.72;;;;;;;;;;5004896;28;20045;-91
2024/02/21 03:49:43;;;;;;;14.55;4.80;;;;;;;;;;5007045;28;20058;-92
2024/02/21 03:52:10;;;;;;;11.73;4.47;;;;;;;;;;5003689;28;20058;-90
2024/02/21 03:54:37;;;;;;;17.50;5.05;;;;;;;;;;5009938;28;20054;-91
2024/02/21 03:57:06;;;;;;;12.75;4.97;;;;;;;;;;5011287;28;20050;-92
2024/02/21 03:59:33;;;;;;;12.75;4.75;;;;;;;;;;5008052;28;20157;-91
2024/02/21 04:02:01;;;;;;;18.05;4.68;;;;;;;;;;5001745;28;20042;-91
2024/02/21 04:04:28;;;;;;;13.15;5.13;;;;;;;;;;5001203;28;20050;-91
2024/02/21 04:06:56;;;;;;;12.68;4.72;;;;;;;;;;5001308;28;20053;-91
2024/02/21 04:09:23;;;;;;;12.60;4.60;;;;;;;;;;5005653;28;20138;-92
2024/02/21 04:11:50;;;;;;;14.18;4.72;;;;;;;;;;5005807;28;20073;-91
2024/02/21 04:14:18;;;;;;;8.70;3.75;;;;;;;;;;5010364;28;20058;-90
2024/02/21 04:16:46;;;;;;;11.60;4.40;;;;;;;;;;5010391;28;20049;-90
2024/02/21 04:19:13;;;;;;;11.82;3.88;;;;;;;;;;5007676;28;20684;-91
2024/02/21 04:21:40;;;;;;;11.90;4.63;;;;;;;;;;5013882;28;20104;-91
2024/02/21 04:24:08;;;;;;;13.90;4.60;;;;;;;;;;5005709;28;20066;-91
2024/02/21 04:26:35;;;;;;;12.75;4.70;;;;;;;;;;5007900;28;20054;-91
2024/02/21 04:29:02;;;;;;;13.13;4.85;;;;;;;;;;5000998;28;20128;-91
2024/02/21 04:31:30;;;;;;;18.83;4.95;;;;;;;;;;5001487;28;20546;-91
2024/02/21 04:33:57;;;;;;;14.55;4.88;;;;;;;;;;5003053;28;20077;-91
2024/02/21 04:36:24;;;;;;;15.23;4.68;;;;;;;;;;5019043;28;20113;-91
2024/02/21 04:38:51;;;;;;;12.75;4.95;;;;;;;;;;5013781;28;20121;-92
2024/02/21 04:41:19;;;;;;;12.02;4.95;;;;;;;;;;5009241;28;20202;-91
2024/02/21 04:43:47;;;;;;;11.98;4.68;;;;;;;;;;5001239;28;20053;-91
2024/02/21 04:46:15;;;;;;;13.45;4.97;;;;;;;;;;5009528;28;20499;-92
2024/02/21 04:48:43;;;;;;;15.40;4.93;;;;;;;;;;5004305;28;20058;-93
2024/02/21 04:51:12;;;;;;;14.00;5.10;;;;;;;;;;5001133;28;20054;-92
2024/02/21 04:53:40;;;;;;;13.82;4.97;;;;;;;;;;5007702;28;20458;-90
2024/02/21 04:56:07;;;;;;;16.27;4.82;;;;;;;;;;5010933;28;20046;-91
2024/02/21 04:58:38;;;;;;;13.30;5.63;;;;;;;;;;5003295;28;20058;-90
2024/02/21 05:01:05;;;;;;;12.27;4.97;;;;;;;;;;5000904;28;20077;-92
2024/02/21 05:03:33;;;;;;;10.65;5.18;;;;;;;;;;5000989;28;20415;-91
2024/02/21 05:06:00;;;;;;;15.52;5.22;;;;;;;;;;5002579;28;20050;-90
2024/02/21 05:08:28;;;;;;;14.75;4.68;;;;;;;;;;5012914;28;20108;-91
2024/02/21 05:10:55;;;;;;;15.18;4.53;;;;;;;;;;5003110;28;20053;-91
2024/02/21 05:13:22;;;;;;;14.75;4.80;;;;;;;;;;5008552;28;20458;-90
2024/02/21 05:15:50;;;;;;;10.05;4.47;;;;;;;;;;5001368;28;20050;-92
2024/02/21 05:18:17;;;;;;;11.55;4.38;;;;;;;;;;5007786;28;20080;-88
2024/02/21 05:20:45;;;;;;;10.77;4.75;;;;;;;;;;5009444;28;20042;-90
2024/02/21 05:23:12;;;;;;;10.45;4.95;;;;;;;;;;5014746;28;20509;-87
2024/02/21 05:25:39;;;;;;;14.00;4.93;;;;;;;;;;5010586;28;20407;-90
2024/02/21 05:28:07;;;;;;;7.30;4.07;;;;;;;;;;5004449;28;20046;-90
2024/02/21 05:30:34;;;;;;;14.43;4.80;;;;;;;;;;5004420;28;20054;-92
2024/02/21 05:33:07;;;;;;;12.35;4.32;;;;;;;;;;5013692;28;20054;-90
2024/02/21 05:35:36;;;;;;;15.55;4.18;;;;;;;;;;5010580;28;20050;-89
2024/02/21 05:38:07;;;;;;;13.68;4.88;;;;;;;;;;5010151;28;20058;-91
2024/02/21 05:40:35;;;;;;;8.80;4.45;;;;;;;;;;5004449;28;20063;-90
2024/02/21 05:43:02;;;;;;;14.25;4.63;;;;;;;;;;5004375;28;20066;-91
2024/02/21 05:45:29;;;;;;;11.07;4.63;;;;;;;;;;5004407;28;20138;-90
2024/02/21 05:47:59;;;;;;;10.80;4.25;;;;;;;;;;5009152;28;20081;-91
2024/02/21 05:50:28;;;;;;;9.90;4.35;;;;;;;;;;5022107;28;20037;-91
2024/02/21 05:52:55;;;;;;;15.45;4.25;;;;;;;;;;5023903;28;20046;-89
2024/02/21 05:55:23;;;;;;;10.27;4.50;;;;;;;;;;5012476;28;20104;-88
2024/02/21 05:57:50;;;;;;;11.00;4.38;;;;;;;;;;5004116;28;20317;-90
2024/02/21 06:00:18;;;;;;;9.75;4.05;;;;;;;;;;5004243;28;20451;-91
2024/02/21 06:02:45;;;;;;;10.60;4.43;;;;;;;;;;5004261;28;20478;-91
2024/02/21 06:05:12;;;;;;;10.27;4.20;;;;;;;;;;5014768;28;20050;-90
2024/02/21 06:07:39;;;;;;;14.38;4.60;;;;;;;;;;5015571;28;20394;-91
2024/02/21 06:10:07;;;;;;;13.68;4.57;;;;;;;;;;5008350;28;20149;-92
2024/02/21 06:12:34;;;;;;;12.18;4.47;;;;;;;;;;5012045;28;20078;-92
2024/02/21 06:15:02;;;;;;;16.40;4.40;;;;;;;;;;5005319;28;20090;-93
2024/02/21 06:17:29;;;;;;;14.85;4.28;;;;;;;;;;5005654;28;20047;-92
2024/02/21 06:19:56;;;;;;;11.20;4.20;;;;;;;;;;5004271;28;20135;-91
2024/02/21 06:22:24;;;;;;;13.07;5.00;;;;;;;;;;5003393;28;20141;-92
2024/02/21 06:24:51;;;;;;;10.05;3.90;;;;;;;;;;5004333;28;20054;-91
2024/02/21 06:27:18;;;;;;;13.90;4.47;;;;;;;;;;5012169;28;20105;-91
2024/02/21 06:29:46;;;;;;;9.70;4.68;;;;;;;;;;5003704;28;20104;-91
2024/02/21 06:32:13;;;;;;;13.07;4.60;;;;;;;;;;5014462;28;20125;-92
2024/02/21 06:34:40;;;;;;;10.10;3.97;;;;;;;;;;5015457;28;20136;-91
2024/02/21 06:37:08;;;;;;;11.88;5.47;;;;;;;;;;5007468;28;20420;-92
2024/02/21 06:39:37;;;;;;;13.75;5.68;;;;;;;;;;5015674;28;20053;-90
2024/02/21 06:42:04;;;;;;;10.20;4.82;;;;;;;;;;5007290;28;20062;-90
2024/02/21 06:44:36;;;;;;;13.00;5.05;;;;;;;;;;5010705;28;20066;-88
2024/02/21 06:47:03;;;;;;;13.82;4.75;;;;;;;;;;5003668;28;20073;-90
2024/02/21 06:49:31;;;;;;;13.35;5.03;;;;;;;;;;5003171;28;20487;-91
2024/02/21 06:51:58;;;;;;;12.30;4.97;;;;;;;;;;5003751;28;20058;-90
2024/02/21 06:54:26;;;;;;;13.93;5.65;;;;;;;;;;5003048;28;20521;-92
2024/02/21 06:56:54;;;;;;;10.05;4.95;;;;;;;;;;5003467;28;20047;-90
2024/02/21 06:59:21;;;;;;;12.45;4.82;;;;;;;;;;4999022;28;20050;-91
2024/02/21 07:01:55;;;;;;;10.85;4.80;;;;;;;;;;5014922;28;20050;-91
2024/02/21 07:04:22;;;;;;;13.40;4.70;;;;;;;;;;5019590;28;20050;-90
2024/02/21 07:06:50;;;;;;;11.63;5.05;;;;;;;;;;5028902;28;20106;-92
2024/02/21 07:09:18;;;;;;;12.70;4.70;;;;;;;;;;5007287;28;20140;-92
2024/02/21 07:11:45;;;;;;;13.55;3.92;;;;;;;;;;5007769;28;20446;-91
2024/02/21 07:14:12;;;;;;;13.20;4.38;;;;;;;;;;5005599;28;20069;-91
2024/02/21 07:16:40;;;;;;;11.25;3.95;;;;;;;;;;5008726;28;20046;-91
2024/02/21 07:19:07;;;;;;;11.70;3.90;;;;;;;;;;5009681;28;20054;-91
2024/02/21 07:21:34;;;;;;;13.52;4.20;;;;;;;;;;5008148;28;20053;-90
2024/02/21 07:24:02;;;;;;;8.82;4.25;;;;;;;;;;5006335;28;20530;-93
2024/02/21 07:26:29;;;;;;;11.68;3.40;;;;;;;;;;5014563;28;20100;-92
2024/02/21 07:28:56;;;;;;;11.82;4.10;;;;;;;;;;5006111;28;20054;-90
2024/02/21 07:31:23;;;;;;;12.63;3.78;;;;;;;;;;5014341;28;20116;-91
2024/02/21 07:33:51;;;;;;;10.60;4.38;;;;;;;;;;5007033;28;20491;-92
2024/02/21 07:36:26;;;;;;;11.77;4.22;;;;;;;;;;5003009;28;20073;-91
2024/02/21 07:38:53;;;;;;;11.35;4.00;;;;;;;;;;5000320;28;20054;-89
2024/02/21 07:41:20;;;;;;;8.65;3.90;;;;;;;;;;4997358;28;20050;-90
2024/02/21 07:43:48;;;;;;;11.60;4.47;;;;;;;;;;5014294;28;20461;-92
2024/02/21 07:46:15;;;;;;;10.45;4.40;;;;;;;;;;5005698;28;20054;-90
2024/02/21 07:48:43;;;;;;;11.05;4.25;;;;;;;;;;5007438;28;20050;-91
2024/02/21 07:51:10;;;;;;;10.05;4.72;;;;;;;;;;5001905;28;20134;-91
2024/02/21 07:53:37;;;;;;;12.85;5.18;;;;;;;;;;5001871;28;20124;-90
2024/02/21 07:56:05;;;;;;;11.77;4.57;;;;;;;;;;5010147;28;20058;-89
2024/02/21 07:58:32;;;;;;;14.27;5.35;;;;;;;;;;4999727;28;20104;-89
2024/02/21 08:00:59;;;;;;;13.20;5.32;;;;;;;;;;5004859;28;20060;-91
2024/02/21 08:03:27;;;;;;;13.68;4.65;;;;;;;;;;5005845;28;20046;-90
2024/02/21 08:05:54;;;;;;;13.05;4.75;;;;;;;;;;5005528;28;20046;-90
2024/02/21 08:08:21;;;;;;;8.40;4.47;;;;;;;;;;5009154;28;20062;-90
2024/02/21 08:10:52;;;;;;;10.85;4.70;;;;;;;;;;5001414;28;20050;-90
2024/02/21 08:13:20;;;;;;;13.15;4.70;;;;;;;;;;5009402;28;20089;-90
2024/02/21 08:15:48;;;;;;;9.50;4.75;;;;;;;;;;5010173;28;20145;-91
2024/02/21 08:18:15;;;;;;;9.50;4.45;;;;;;;;;;5003421;28;20119;-91
2024/02/21 08:20:42;;;;;;;11.40;4.30;;;;;;;;;;5021838;28;20034;-90
2024/02/21 08:23:10;;;;;;;10.00;4.45;;;;;;;;;;4997410;28;20081;-91
2024/02/21 08:25:37;;;;;;;12.00;4.85;;;;;;;;;;5006569;28;20120;-91
2024/02/21 08:28:06;;;;;;;10.95;4.72;;;;;;;;;;5006988;28;20094;-90
2024/02/21 08:30:33;;;;;;;9.25;4.47;;;;;;;;;;5007924;28;20050;-90
2024/02/21 08:33:00;;;;;;;11.35;4.80;;;;;;;;;;5001312;28;20054;-90
2024/02/21 08:35:28;;;;;;;11.95;4.57;;;;;;;;;;5001403;28;20441;-91
2024/02/21 08:37:55;;;;;;;16.23;6.00;;;;;;;;;;5009359;28;20065;-91
2024/02/21 08:40:23;;;;;;;10.50;4.30;;;;;;;;;;5009376;28;20074;-91
2024/02/21 08:42:50;;;;;;;9.38;3.80;;;;;;;;;;5005489;28;20479;-91
2024/02/21 08:45:17;;;;;;;7.40;3.97;;;;;;;;;;5001517;28;20546;-91
2024/02/21 08:47:44;;;;;;;9.60;3.92;;;;;;;;;;5007051;28;20053;-91
2024/02/21 08:50:12;;;;;;;9.38;3.50;;;;;;;;;;5005537;28;20050;-89
2024/02/21 08:52:54;;;;;;;6.47;3.13;;;;;;;;;;5008888;28;20157;-90
2024/02/21 08:55:22;;;;;;;9.88;3.35;;;;;;;;;;5005689;28;20054;-90
2024/02/21 08:57:50;;;;;;;11.35;3.53;;;;;;;;;;5005270;28;20121;-90
2024/02/21 09:00:17;;;;;;;9.68;3.08;;;;;;;;;;5013375;28;20049;-91
2024/02/21 09:02:45;;;;;;;9.05;2.92;;;;;;;;;;5008469;28;20106;-90
2024/02/21 09:05:12;;;;;;;5.97;2.80;;;;;;;;;;5005530;28;20050;-90
2024/02/21 09:07:39;;;;;;;8.25;2.92;;;;;;;;;;5004953;28;20141;-90
2024/02/21 09:10:07;;;;;;;8.40;3.63;;;;;;;;;;5004952;28;20057;-89
2024/02/21 09:12:34;;;;;;;6.80;3.53;;;;;;;;;;5004690;28;20093;-90
2024/02/21 09:15:01;;;;;;;7.07;3.08;;;;;;;;;;5005827;28;20101;-90
2024/02/21 09:17:29;;;;;;;7.47;2.83;;;;;;;;;;5011570;28;20050;-90
2024/02/21 09:19:59;;;;;;;7.93;3.20;;;;;;;;;;5004693;28;20077;-92
2024/02/21 09:22:27;;;;;;;7.47;3.30;;;;;;;;;;5005258;28;20058;-91
2024/02/21 09:24:55;;;;;;;6.95;3.33;;;;;;;;;;5013089;28;20128;-90
2024/02/21 09:27:22;;;;;;;9.20;2.80;;;;;;;;;;5016076;28;20053;-90
2024/02/21 09:29:49;;;;;;;10.43;3.50;;;;;;;;;;5008588;28;20054;-91
2024/02/21 09:32:17;;;;;;;7.53;3.03;;;;;;;;;;5012149;28;20105;-89
2024/02/21 09:34:45;;;;;;;8.00;2.88;;;;;;;;;;5014954;28;20050;-90
2024/02/21 09:37:12;;;;;;;7.70;3.33;;;;;;;;;;5012620;28;20478;-90
2024/02/21 09:39:39;;;;;;;5.57;2.88;;;;;;;;;;5010631;28;20050;-90
2024/02/21 09:42:07;;;;;;;8.25;3.38;;;;;;;;;;5007945;28;20134;-89
2024/02/21 09:44:38;;;;;;;15.70;3.60;;;;;;;;;;5010520;28;20541;-91
2024/02/21 09:47:32;;;;;;;11.70;3.63;;;;;;;;;;5011860;28;20138;-90
2024/02/21 09:50:01;;;;;;;9.50;3.38;;;;;;;;;;4990700;28;20046;-91
2024/02/21 09:52:28;;;;;;;8.20;3.45;;;;;;;;;;5011365;28;20080;-90
2024/02/21 09:54:56;;;;;;;8.60;3.08;;;;;;;;;;5009268;28;20062;-89
2024/02/21 09:57:24;;;;;;;7.57;3.10;;;;;;;;;;5011474;28;20047;-89
2024/02/21 09:59:53;;;;;;;6.28;3.25;;;;;;;;;;5008699;28;20050;-88
2024/02/21 10:02:20;;;;;;;9.70;3.20;;;;;;;;;;5003374;28;20050;-90
2024/02/21 10:04:48;;;;;;;7.32;3.22;;;;;;;;;;5003624;28;20573;-92
2024/02/21 10:07:15;;;;;;;7.28;3.25;;;;;;;;;;5003361;28;20073;-90
2024/02/21 10:09:45;;;;;;;9.98;3.42;;;;;;;;;;5010517;28;20046;-90
2024/02/21 10:12:13;;;;;;;11.32;3.58;;;;;;;;;;5015424;28;20053;-90
2024/02/21 10:14:40;;;;;;;10.30;4.03;;;;;;;;;;5011929;28;20073;-89
2024/02/21 10:17:09;;;;;;;11.55;3.28;;;;;;;;;;5005470;28;20084;-90
2024/02/21 10:19:39;;;;;;;13.10;3.40;;;;;;;;;;5009610;28;20064;-90
2024/02/21 10:22:08;;;;;;;11.02;3.60;;;;;;;;;;5003482;28;20067;-89
2024/02/21 10:24:38;;;;;;;9.40;3.47;;;;;;;;;;5009932;28;20108;-89
2024/02/21 10:27:10;;;;;;;7.65;3.00;;;;;;;;;;5006885;28;20108;-90
2024/02/21 10:29:40;;;;;;;6.53;2.92;;;;;;;;;;5009011;28;20050;-90
2024/02/21 10:32:08;;;;;;;8.98;3.20;;;;;;;;;;5013307;28;20422;-90
2024/02/21 10:34:36;;;;;;;11.25;3.25;;;;;;;;;;5011426;28;20054;-88
2024/02/21 10:37:04;;;;;;;8.27;2.92;;;;;;;;;;5003184;28;20046;-90
2024/02/21 10:39:38;;;;;;;8.20;3.00;;;;;;;;;;5003298;28;20046;-90
2024/02/21 10:42:07;;;;;;;9.35;2.70;;;;;;;;;;5004881;28;20081;-88
2024/02/21 10:44:39;;;;;;;7.50;2.92;;;;;;;;;;5011627;28;20050;-91
2024/02/21 10:47:08;;;;;;;10.13;3.35;;;;;;;;;;5004350;28;20054;-87
2024/02/21 10:49:39;;;;;;;8.68;2.90;;;;;;;;;;5021669;28;20057;-89
2024/02/21 10:52:11;;;;;;;5.28;2.70;;;;;;;;;;5018565;28;20160;-90
2024/02/21 10:54:50;;;;;;;5.30;2.50;;;;;;;;;;5015415;28;20513;-89
2024/02/21 10:57:18;;;;;;;7.93;3.13;;;;;;;;;;5003410;28;20108;-89
2024/02/21 10:59:45;;;;;;;6.90;2.63;;;;;;;;;;5002974;28;20061;-89
2024/02/21 11:02:13;;;;;;;6.85;2.72;;;;;;;;;;5002265;28;20054;-90
2024/02/21 11:04:42;;;;;;;8.20;2.97;;;;;;;;;;5002229;28;20065;-91
2024/02/21 11:07:09;;;;;;;7.05;2.42;;;;;;;;;;5012424;28;20057;-88
2024/02/21 11:09:38;;;;;;;6.28;2.75;;;;;;;;;;5008479;28;20066;-90
2024/02/21 11:12:06;;;;;;;9.43;2.47;;;;;;;;;;5008512;28;20137;-89
2024/02/21 11:14:39;;;;;;;7.40;3.03;;;;;;;;;;5001775;28;20132;-89
2024/02/21 11:17:17;;;;;;;11.23;2.87;;;;;;;;;;5002519;28;20050;-89
2024/02/21 11:19:45;;;;;;;8.55;2.50;;;;;;;;;;5009165;28;20307;-90
2024/02/21 11:22:16;;;;;;;6.40;2.78;;;;;;;;;;5005785;28;20552;-88
2024/02/21 11:24:44;;;;;;;8.35;2.65;;;;;;;;;;5007547;28;20050;-90
2024/02/21 11:27:15;;;;;;;34.05;4.25;;;;;;;;;;5002589;28;20458;-91
2024/02/21 11:29:43;;;;;;;8.30;2.90;;;;;;;;;;5008945;28;20084;-87
2024/02/21 11:32:12;;;;;;;8.00;2.70;;;;;;;;;;5013939;28;20116;-89
2024/02/21 11:34:42;;;;;;;8.13;2.75;;;;;;;;;;5007682;28;20050;-89
2024/02/21 11:37:16;;;;;;;7.65;2.40;;;;;;;;;;5008245;28;20523;-90
2024/02/21 11:39:43;;;;;;;8.75;2.25;;;;;;;;;;5008563;28;20462;-88
2024/02/21 11:42:12;;;;;;;6.25;2.30;;;;;;;;;;5005386;28;20073;-89
2024/02/21 11:44:42;;;;;;;6.97;2.60;;;;;;;;;;5007910;28;20054;-91
2024/02/21 11:47:10;;;;;;;10.00;2.53;;;;;;;;;;5003754;28;20061;-89
2024/02/21 11:49:41;;;;;;;7.93;2.67;;;;;;;;;;5007637;28;20438;-89
2024/02/21 11:52:08;;;;;;;5.22;2.10;;;;;;;;;;5008391;28;20062;-89
2024/02/21 11:54:35;;;;;;;5.78;2.00;;;;;;;;;;5002076;28;20102;-89
2024/02/21 11:57:04;;;;;;;7.18;2.13;;;;;;;;;;5001828;28;20054;-90
2024/02/21 11:59:31;;;;;;;7.72;2.20;;;;;;;;;;5001736;28;20057;-89
2024/02/21 12:01:59;;;;;;;6.40;2.13;;;;;;;;;;5001600;28;20522;-89
2024/02/21 12:04:28;;;;;;;5.90;2.15;;;;;;;;;;5012064;28;20030;-90
2024/02/21 12:06:56;;;;;;;6.55;2.38;;;;;;;;;;5007175;28;20054;-88
2024/02/21 12:09:24;;;;;;;6.03;2.15;;;;;;;;;;5001666;28;20545;-89
2024/02/21 12:11:58;;;;;;;15.38;2.60;;;;;;;;;;5001151;28;20431;-89
2024/02/21 12:14:26;;;;;;;6.43;2.20;;;;;;;;;;5001652;28;20455;-87
2024/02/21 12:16:53;;;;;;;6.20;2.20;;;;;;;;;;5001641;28;20456;-89
2024/02/21 12:19:21;;;;;;;5.25;1.88;;;;;;;;;;5004357;28;20579;-89
2024/02/21 12:21:52;;;;;;;6.32;1.95;;;;;;;;;;5012986;28;20053;-88
2024/02/21 12:24:23;;;;;;;4.97;1.80;;;;;;;;;;5001486;28;20050;-88
2024/02/21 12:26:54;;;;;;;5.10;1.95;;;;;;;;;;5001024;28;20083;-88
2024/02/21 12:29:22;;;;;;;6.28;2.10;;;;;;;;;;5004920;28;20049;-89
2024/02/21 12:31:49;;;;;;;5.68;2.38;;;;;;;;;;5005835;28;20046;-89
2024/02/21 12:34:17;;;;;;;4.82;1.98;;;;;;;;;;5009210;28;20456;-90
2024/02/21 12:36:57;;;;;;;9.90;2.33;;;;;;;;;;5009863;28;20042;-89
2024/02/21 12:39:25;;;;;;;5.15;1.83;;;;;;;;;;5008835;28;20066;-90
2024/02/21 12:41:52;;;;;;;11.93;2.40;;;;;;;;;;5000791;28;20066;-90
2024/02/21 12:44:19;;;;;;;4.35;2.22;;;;;;;;;;5004625;28;20058;-88
2024/02/21 12:46:51;;;;;;;4.40;2.15;;;;;;;;;;5012679;28;20046;-88
2024/02/21 12:49:19;;;;;;;6.90;2.00;;;;;;;;;;5004495;28;20147;-88
2024/02/21 12:51:49;;;;;;;4.25;1.70;;;;;;;;;;5005669;28;20101;-89
2024/02/21 12:54:16;;;;;;;5.82;1.75;;;;;;;;;;5013081;28;20049;-88
2024/02/21 12:56:43;;;;;;;4.57;2.30;;;;;;;;;;5009265;28;20100;-89
2024/02/21 12:59:10;;;;;;;13.60;2.08;;;;;;;;;;5000662;28;20042;-90
2024/02/21 13:01:38;;;;;;;10.25;2.40;;;;;;;;;;5001408;28;20105;-89
2024/02/21 13:04:05;;;;;;;5.50;1.88;;;;;;;;;;5001273;28;20053;-89
2024/02/21 13:06:33;;;;;;;7.07;2.15;;;;;;;;;;5001025;28;20046;-87
2024/02/21 13:09:07;;;;;;;6.47;1.70;;;;;;;;;;5000297;28;20078;-89
2024/02/21 13:11:34;;;;;;;;;;;;;;;;;;5006051;28;20112;-87
2024/02/21 13:14:01;;;;;;;5.10;1.77;;;;;;;;;;5027658;28;20372;-89
2024/02/21 13:16:29;;;;;;;6.60;1.85;;;;;;;;;;5002139;28;20491;-89
2024/02/21 13:18:56;;;;;;;4.47;1.75;;;;;;;;;;5011409;28;20081;-89
2024/02/21 13:21:24;;;;;;;5.47;1.40;;;;;;;;;;5018964;28;20125;-90
2024/02/21 13:23:51;;;;;;;5.50;1.60;;;;;;;;;;5005009;28;20054;-88
2024/02/21 13:26:20;;;;;;;6.05;2.15;;;;;;;;;;5004092;28;20069;-89
2024/02/21 13:28:47;;;;;;;8.65;2.10;;;;;;;;;;5008968;28;20483;-90
2024/02/21 13:31:16;;;;;;;7.07;1.95;;;;;;;;;;5000225;28;20058;-87
2024/02/21 13:33:46;;;;;;;4.90;1.88;;;;;;;;;;5000071;28;20563;-89
2024/02/21 13:36:13;;;;;;;5.85;2.17;;;;;;;;;;4999460;28;20407;-89
2024/02/21 13:38:41;;;;;;;6.70;1.75;;;;;;;;;;5002316;28;20053;-89
2024/02/21 13:41:08;;;;;;;7.10;2.22;;;;;;;;;;5003486;28;20047;-88
2024/02/21 13:43:35;;;;;;;4.95;1.88;;;;;;;;;;5003591;28;20077;-88
2024/02/21 13:46:04;;;;;;;6.43;1.80;;;;;;;;;;5010247;28;20133;-90
2024/02/21 13:48:33;;;;;;;4.13;1.50;;;;;;;;;;5014902;28;20054;-89
2024/02/21 13:51:02;;;;;;;4.82;2.25;;;;;;;;;;5006770;28;20051;-88
2024/02/21 13:53:29;;;;;;;5.03;1.85;;;;;;;;;;5011388;28;20042;-88
2024/02/21 13:55:56;;;;;;;5.38;1.42;;;;;;;;;;5009227;28;20104;-90
2024/02/21 13:58:25;;;;;;;4.80;1.80;;;;;;;;;;5011503;28;20379;-87
2024/02/21 14:00:53;;;;;;;7.72;1.73;;;;;;;;;;5011869;28;20108;-90
2024/02/21 14:03:21;;;;;;;4.13;1.50;;;;;;;;;;5015445;28;20050;-90
2024/02/21 14:05:48;;;;;;;6.10;1.83;;;;;;;;;;5008488;28;20479;-90
2024/02/21 14:08:16;;;;;;;5.93;1.98;;;;;;;;;;5003540;28;20062;-90
2024/02/21 14:10:43;;;;;;;9.15;1.73;;;;;;;;;;5004270;28;20054;-89
2024/02/21 14:13:11;;;;;;;5.00;1.65;;;;;;;;;;5003551;28;20462;-89
2024/02/21 14:15:40;;;;;;;4.25;1.83;;;;;;;;;;5003789;28;20050;-90
2024/02/21 14:18:09;;;;;;;5.32;1.70;;;;;;;;;;5013616;28;20057;-90
2024/02/21 14:20:37;;;;;;;4.80;1.60;;;;;;;;;;5009780;28;20058;-90
2024/02/21 14:23:04;;;;;;;7.60;1.80;;;;;;;;;;5004069;28;20069;-87
2024/02/21 14:25:33;;;;;;;8.05;1.92;;;;;;;;;;5008651;28;20136;-87
2024/02/21 14:28:01;;;;;;;6.03;2.15;;;;;;;;;;5006330;28;20058;-90
2024/02/21 14:30:28;;;;;;;6.28;2.17;;;;;;;;;;5010198;28;20046;-90
2024/02/21 14:32:55;;;;;;;5.50;1.60;;;;;;;;;;5003759;28;20100;-90
2024/02/21 14:35:23;;;;;;;7.90;1.70;;;;;;;;;;5024329;28;20057;-92
2024/02/21 14:37:52;;;;;;;9.27;1.75;;;;;;;;;;5007975;28;20049;-90
2024/02/21 14:40:20;;;;;;;3.47;1.63;;;;;;;;;;5006728;28;20050;-90